createdAt,value
2019-05-28T00:00:05.678Z,23.40
2019-05-28T00:01:05.683Z,22.60
2019-05-28T00:02:05.666Z,23.50
2019-05-28T00:03:05.646Z,22.60
2019-05-28T00:04:05.641Z,22.90
2019-05-28T00:05:05.625Z,22.80
2019-05-28T00:06:05.632Z,23.30
2019-05-28T00:07:05.632Z,23.50
2019-05-28T00:08:05.591Z,22.10
2019-05-28T00:09:05.579Z,22.70
2019-05-28T00:10:05.821Z,22.50
2019-05-28T00:11:05.557Z,22.50
2019-05-28T00:12:05.558Z,22.80
2019-05-28T00:13:05.540Z,22.80
2019-05-28T00:14:05.541Z,23.40
2019-05-28T00:15:05.513Z,23.00
2019-05-28T00:16:05.538Z,22.90
2019-05-28T00:17:05.489Z,23.50
2019-05-28T00:18:05.478Z,22.80
2019-05-28T00:19:05.463Z,22.70
2019-05-28T00:20:05.513Z,22.60
2019-05-28T00:21:05.446Z,23.00
2019-05-28T00:22:05.429Z,23.10
2019-05-28T00:23:05.424Z,23.20
2019-05-28T00:24:05.409Z,23.30
2019-05-28T00:25:05.394Z,22.60
2019-05-28T00:26:05.397Z,22.30
2019-05-28T00:27:05.372Z,22.70
2019-05-28T00:28:05.358Z,22.30
2019-05-28T00:29:05.349Z,23.20
2019-05-28T00:30:19.373Z,22.90
2019-05-28T00:31:06.333Z,22.60
2019-05-28T00:32:05.326Z,22.70
2019-05-28T00:33:05.331Z,23.80
2019-05-28T00:34:05.294Z,23.00
2019-05-28T00:35:05.278Z,23.50
2019-05-28T00:36:05.298Z,23.60
2019-05-28T00:37:05.261Z,23.60
2019-05-28T00:38:05.254Z,22.80
2019-05-28T00:39:05.236Z,22.90
2019-05-28T00:40:05.224Z,23.50
2019-05-28T00:41:05.225Z,24.30
2019-05-28T00:42:05.210Z,24.10
2019-05-28T00:43:05.194Z,23.50
2019-05-28T00:44:05.177Z,23.10
2019-05-28T00:45:05.236Z,24.00
2019-05-28T00:46:05.192Z,23.80
2019-05-28T00:47:05.149Z,23.50
2019-05-28T00:48:05.143Z,23.20
2019-05-28T00:49:05.125Z,23.60
2019-05-28T00:50:05.144Z,23.70
2019-05-28T00:51:05.111Z,23.70
2019-05-28T00:52:05.104Z,24.00
2019-05-28T00:53:05.088Z,23.80
2019-05-28T00:54:05.078Z,23.80
2019-05-28T00:55:05.066Z,23.80
2019-05-28T00:56:05.066Z,24.40
2019-05-28T00:57:05.044Z,23.70
2019-05-28T00:58:05.028Z,23.20
2019-05-28T00:59:05.018Z,23.90
2019-05-28T01:00:05.019Z,23.30
2019-05-28T01:01:05.011Z,23.20
2019-05-28T01:02:04.999Z,22.90
2019-05-28T01:03:04.980Z,22.90
2019-05-28T01:04:04.969Z,23.00
2019-05-28T01:05:04.961Z,22.60
2019-05-28T01:06:04.950Z,22.90
2019-05-28T01:07:04.941Z,23.00
2019-05-28T01:08:04.935Z,22.60
2019-05-28T01:09:04.915Z,22.10
2019-05-28T01:10:04.907Z,22.10
2019-05-28T01:11:04.902Z,21.70
2019-05-28T01:12:04.882Z,22.40
2019-05-28T01:13:04.914Z,22.70
2019-05-28T01:14:04.862Z,22.50
2019-05-28T01:15:04.852Z,22.40
2019-05-28T01:16:04.839Z,22.60
2019-05-28T01:17:04.827Z,22.30
2019-05-28T01:18:04.814Z,23.00
2019-05-28T01:19:04.814Z,22.90
2019-05-28T01:20:04.797Z,23.10
2019-05-28T01:21:04.787Z,23.20
2019-05-28T01:22:04.779Z,22.90
2019-05-28T01:23:04.767Z,22.80
2019-05-28T01:24:04.770Z,23.30
2019-05-28T01:25:04.746Z,23.60
2019-05-28T01:26:04.757Z,23.60
2019-05-28T01:27:04.722Z,22.90
2019-05-28T01:28:04.706Z,24.00
2019-05-28T01:29:04.706Z,23.10
2019-05-28T01:30:04.687Z,24.00
2019-05-28T01:31:04.676Z,23.40
2019-05-28T01:32:04.675Z,23.60
2019-05-28T01:33:04.655Z,24.40
2019-05-28T01:34:04.645Z,24.10
2019-05-28T01:35:04.642Z,24.10
2019-05-28T01:36:04.636Z,24.00
2019-05-28T01:37:04.612Z,24.40
2019-05-28T01:38:04.602Z,24.70
2019-05-28T01:39:04.590Z,24.00
2019-05-28T01:40:04.580Z,24.50
2019-05-28T01:41:04.576Z,24.40
2019-05-28T01:42:04.551Z,24.70
2019-05-28T01:43:04.550Z,25.20
2019-05-28T01:44:04.533Z,25.00
2019-05-28T01:45:04.520Z,25.20
2019-05-28T01:46:04.506Z,24.70
2019-05-28T01:47:04.509Z,25.70
2019-05-28T01:48:04.490Z,24.40
2019-05-28T01:49:04.479Z,25.30
2019-05-28T01:50:04.467Z,25.70
2019-05-28T01:51:04.458Z,25.90
2019-05-28T01:52:04.455Z,25.60
2019-05-28T01:53:04.433Z,25.80
2019-05-28T01:54:04.433Z,25.40
2019-05-28T01:55:04.438Z,25.80
2019-05-28T01:56:04.395Z,26.20
2019-05-28T01:57:04.435Z,25.80
2019-05-28T01:58:04.378Z,26.00
2019-05-28T01:59:04.372Z,25.30
2019-05-28T02:00:04.359Z,25.90
2019-05-28T02:01:12.601Z,25.30
2019-05-28T02:02:05.361Z,25.70
2019-05-28T02:03:04.324Z,25.80
2019-05-28T02:04:04.316Z,25.40
2019-05-28T02:05:04.306Z,26.20
2019-05-28T02:06:04.297Z,24.90
2019-05-28T02:07:04.274Z,24.90
2019-05-28T02:08:04.275Z,24.60
2019-05-28T02:09:04.258Z,24.50
2019-05-28T02:10:04.294Z,25.30
2019-05-28T02:11:04.381Z,25.20
2019-05-28T02:12:04.220Z,24.50
2019-05-28T02:13:04.230Z,24.50
2019-05-28T02:14:04.206Z,24.40
2019-05-28T02:15:04.193Z,24.00
2019-05-28T02:16:04.178Z,24.10
2019-05-28T02:17:04.165Z,24.80
2019-05-28T02:18:04.161Z,23.70
2019-05-28T02:19:04.157Z,25.00
2019-05-28T02:20:04.134Z,23.90
2019-05-28T02:21:04.123Z,24.20
2019-05-28T02:22:04.115Z,24.80
2019-05-28T02:23:04.098Z,24.20
2019-05-28T02:24:04.096Z,24.70
2019-05-28T02:25:04.077Z,24.10
2019-05-28T02:26:04.075Z,24.40
2019-05-28T02:27:04.061Z,24.50
2019-05-28T02:28:04.048Z,24.70
2019-05-28T02:29:04.033Z,24.60
2019-05-28T02:30:04.045Z,24.50
2019-05-28T02:31:04.011Z,24.80
2019-05-28T02:32:04.006Z,24.80
2019-05-28T02:33:03.994Z,24.70
2019-05-28T02:34:03.982Z,24.90
2019-05-28T02:35:04.834Z,24.60
2019-05-28T02:36:03.970Z,24.20
2019-05-28T02:37:03.944Z,23.40
2019-05-28T02:38:03.937Z,24.50
2019-05-28T02:39:03.925Z,23.70
2019-05-28T02:40:03.914Z,24.00
2019-05-28T02:41:03.913Z,23.40
2019-05-28T02:42:03.894Z,24.00
2019-05-28T02:43:03.878Z,23.80
2019-05-28T02:44:03.874Z,23.10
2019-05-28T02:45:03.855Z,23.00
2019-05-28T02:46:03.862Z,23.00
2019-05-28T02:47:03.842Z,23.50
2019-05-28T02:48:03.828Z,23.60
2019-05-28T02:49:03.831Z,23.00
2019-05-28T02:50:03.811Z,23.60
2019-05-28T02:51:03.795Z,23.50
2019-05-28T02:52:03.810Z,22.00
2019-05-28T02:53:03.768Z,22.40
2019-05-28T02:54:03.756Z,22.40
2019-05-28T02:55:03.751Z,21.90
2019-05-28T02:56:03.740Z,22.20
2019-05-28T02:57:03.751Z,21.80
2019-05-28T02:58:03.728Z,21.90
2019-05-28T02:59:03.712Z,21.80
2019-05-28T03:00:03.696Z,21.20
2019-05-28T03:01:03.683Z,22.80
2019-05-28T03:02:03.674Z,21.80
2019-05-28T03:03:03.699Z,21.20
2019-05-28T03:04:03.650Z,21.60
2019-05-28T03:05:03.636Z,21.30
2019-05-28T03:06:03.624Z,21.60
2019-05-28T03:07:03.622Z,21.00
2019-05-28T03:08:03.603Z,20.70
2019-05-28T03:09:03.604Z,21.00
2019-05-28T03:10:03.581Z,20.20
2019-05-28T03:11:04.529Z,20.90
2019-05-28T03:12:03.564Z,20.90
2019-05-28T03:13:03.547Z,20.40
2019-05-28T03:14:03.551Z,21.20
2019-05-28T03:15:03.533Z,19.70
2019-05-28T03:16:03.515Z,20.90
2019-05-28T03:17:03.513Z,20.80
2019-05-28T03:18:03.501Z,20.90
2019-05-28T03:19:03.486Z,20.80
2019-05-28T03:20:03.490Z,20.90
2019-05-28T03:21:03.470Z,21.00
2019-05-28T03:22:03.453Z,20.50
2019-05-28T03:23:03.439Z,20.50
2019-05-28T03:24:03.427Z,20.50
2019-05-28T03:25:03.428Z,21.00
2019-05-28T03:26:03.419Z,19.90
2019-05-28T03:27:03.398Z,20.70
2019-05-28T03:28:03.392Z,20.50
2019-05-28T03:29:03.372Z,20.10
2019-05-28T03:30:03.386Z,19.80
2019-05-28T03:31:03.358Z,20.00
2019-05-28T03:32:07.678Z,20.00
2019-05-28T03:33:04.331Z,19.40
2019-05-28T03:34:03.321Z,20.20
2019-05-28T03:35:03.319Z,19.80
2019-05-28T03:36:03.335Z,20.10
2019-05-28T03:37:03.305Z,19.90
2019-05-28T03:38:03.271Z,20.20
2019-05-28T03:39:03.260Z,20.00
2019-05-28T03:40:03.248Z,20.40
2019-05-28T03:41:03.261Z,19.90
2019-05-28T03:42:03.257Z,20.60
2019-05-28T03:43:03.220Z,20.10
2019-05-28T03:44:03.204Z,19.90
2019-05-28T03:45:03.197Z,20.10
2019-05-28T03:46:03.303Z,19.90
2019-05-28T03:47:03.176Z,19.50
2019-05-28T03:48:03.173Z,19.60
2019-05-28T03:49:03.151Z,19.80
2019-05-28T03:50:03.146Z,19.70
2019-05-28T03:51:03.135Z,19.70
2019-05-28T03:52:03.132Z,19.90
2019-05-28T03:53:03.107Z,20.10
2019-05-28T03:54:03.098Z,19.50
2019-05-28T03:55:03.089Z,20.10
2019-05-28T03:56:03.203Z,19.90
2019-05-28T03:57:03.062Z,19.60
2019-05-28T03:58:03.079Z,18.50
2019-05-28T03:59:03.051Z,19.50
2019-05-28T04:00:03.033Z,19.30
2019-05-28T04:01:03.026Z,19.10
2019-05-28T04:02:03.019Z,19.10
2019-05-28T04:03:03.005Z,19.00
2019-05-28T04:04:02.992Z,19.00
2019-05-28T04:05:02.978Z,19.50
2019-05-28T04:06:02.970Z,19.20
2019-05-28T04:07:02.951Z,19.10
2019-05-28T04:08:02.995Z,18.90
2019-05-28T04:09:02.930Z,19.30
2019-05-28T04:10:02.937Z,19.70
2019-05-28T04:11:02.926Z,19.50
2019-05-28T04:12:02.905Z,19.00
2019-05-28T04:13:02.899Z,18.80
2019-05-28T04:14:02.885Z,19.40
2019-05-28T04:15:02.870Z,19.10
2019-05-28T04:16:02.863Z,18.70
2019-05-28T04:17:02.841Z,18.90
2019-05-28T04:18:02.882Z,18.70
2019-05-28T04:19:02.831Z,19.40
2019-05-28T04:20:02.817Z,18.40
2019-05-28T04:21:02.805Z,18.00
2019-05-28T04:22:02.793Z,17.90
2019-05-28T04:23:02.781Z,18.50
2019-05-28T04:24:02.792Z,18.80
2019-05-28T04:25:02.770Z,18.90
2019-05-28T04:26:02.754Z,18.70
2019-05-28T04:27:02.740Z,18.70
2019-05-28T04:28:02.728Z,19.30
2019-05-28T04:29:02.721Z,19.00
2019-05-28T04:30:02.716Z,18.40
2019-05-28T04:31:02.692Z,19.20
2019-05-28T04:32:02.688Z,18.40
2019-05-28T04:33:02.678Z,18.40
2019-05-28T04:34:02.684Z,19.00
2019-05-28T04:35:02.652Z,18.30
2019-05-28T04:36:02.637Z,19.10
2019-05-28T04:37:02.634Z,18.50
2019-05-28T04:38:02.627Z,18.70
2019-05-28T04:39:02.613Z,18.30
2019-05-28T04:40:02.610Z,18.80
2019-05-28T04:41:02.585Z,18.90
2019-05-28T04:42:02.581Z,19.20
2019-05-28T04:43:02.623Z,19.20
2019-05-28T04:44:02.552Z,19.00
2019-05-28T04:45:02.567Z,19.00
2019-05-28T04:46:02.538Z,19.30
2019-05-28T04:47:02.522Z,19.40
2019-05-28T04:48:02.514Z,19.00
2019-05-28T04:49:02.504Z,19.10
2019-05-28T04:50:02.494Z,18.70
2019-05-28T04:51:02.489Z,19.20
2019-05-28T04:52:02.472Z,19.30
2019-05-28T04:53:02.471Z,18.60
2019-05-28T04:54:02.453Z,19.00
2019-05-28T04:55:02.444Z,18.80
2019-05-28T04:56:02.438Z,18.90
2019-05-28T04:57:02.418Z,20.10
2019-05-28T04:58:02.403Z,20.10
2019-05-28T04:59:03.968Z,20.30
2019-05-28T05:00:02.388Z,21.00
2019-05-28T05:01:02.387Z,20.10
2019-05-28T05:02:02.389Z,20.40
2019-05-28T05:03:02.360Z,19.70
2019-05-28T05:04:02.336Z,18.90
2019-05-28T05:05:02.334Z,19.50
2019-05-28T05:06:02.324Z,20.00
2019-05-28T05:07:02.316Z,19.40
2019-05-28T05:08:02.294Z,19.60
2019-05-28T05:09:02.278Z,20.10
2019-05-28T05:10:02.287Z,20.10
2019-05-28T05:11:02.261Z,19.70
2019-05-28T05:12:02.286Z,19.30
2019-05-28T05:13:02.242Z,19.30
2019-05-28T05:14:02.221Z,20.10
2019-05-28T05:15:02.530Z,19.70
2019-05-28T05:16:02.207Z,20.30
2019-05-28T05:17:02.200Z,20.10
2019-05-28T05:18:02.189Z,20.00
2019-05-28T05:19:02.174Z,19.60
2019-05-28T05:20:02.157Z,19.80
2019-05-28T05:21:02.176Z,19.50
2019-05-28T05:22:02.139Z,19.90
2019-05-28T05:23:02.139Z,20.30
2019-05-28T05:24:02.109Z,19.60
2019-05-28T05:25:02.218Z,20.10
2019-05-28T05:26:02.095Z,19.70
2019-05-28T05:27:02.082Z,19.10
2019-05-28T05:28:02.113Z,19.80
2019-05-28T05:29:02.065Z,19.80
2019-05-28T05:30:02.082Z,19.10
2019-05-28T05:31:02.054Z,19.10
2019-05-28T05:32:02.023Z,19.80
2019-05-28T05:33:18.586Z,20.40
2019-05-28T05:34:03.018Z,19.50
2019-05-28T05:35:01.991Z,20.00
2019-05-28T05:36:01.984Z,20.10
2019-05-28T05:37:01.970Z,20.10
2019-05-28T05:38:01.965Z,20.00
2019-05-28T05:39:01.961Z,20.10
2019-05-28T05:40:02.015Z,20.30
2019-05-28T05:41:01.923Z,19.60
2019-05-28T05:42:01.918Z,19.70
2019-05-28T05:43:01.903Z,19.30
2019-05-28T05:44:01.899Z,19.90
2019-05-28T05:45:01.884Z,20.00
2019-05-28T05:46:01.881Z,19.90
2019-05-28T05:47:01.866Z,19.80
2019-05-28T05:48:01.846Z,19.50
2019-05-28T05:49:01.838Z,19.90
2019-05-28T05:50:01.855Z,19.30
2019-05-28T05:51:01.978Z,19.60
2019-05-28T05:52:01.807Z,20.00
2019-05-28T05:53:01.831Z,20.00
2019-05-28T05:54:01.790Z,19.30
2019-05-28T05:55:01.785Z,19.00
2019-05-28T05:56:01.802Z,19.30
2019-05-28T05:57:01.752Z,19.60
2019-05-28T05:58:01.745Z,19.70
2019-05-28T05:59:01.735Z,19.10
2019-05-28T06:00:01.724Z,19.10
2019-05-28T06:01:01.704Z,19.60
2019-05-28T06:02:01.713Z,19.30
2019-05-28T06:03:01.690Z,19.10
2019-05-28T06:04:01.686Z,19.80
2019-05-28T06:05:01.667Z,18.80
2019-05-28T06:06:01.651Z,18.90
2019-05-28T06:07:01.657Z,19.10
2019-05-28T06:08:01.644Z,18.80
2019-05-28T06:09:01.639Z,18.50
2019-05-28T06:10:01.674Z,18.60
2019-05-28T06:11:01.595Z,18.50
2019-05-28T06:12:01.609Z,19.40
2019-05-28T06:13:01.583Z,18.90
2019-05-28T06:14:01.562Z,18.80
2019-05-28T06:15:01.653Z,19.00
2019-05-28T06:16:01.541Z,19.50
2019-05-28T06:17:01.530Z,19.80
2019-05-28T06:18:01.543Z,20.20
2019-05-28T06:19:01.536Z,18.90
2019-05-28T06:20:01.500Z,19.20
2019-05-28T06:21:12.058Z,19.10
2019-05-28T06:22:02.478Z,18.60
2019-05-28T06:23:01.469Z,18.50
2019-05-28T06:24:01.489Z,19.30
2019-05-28T06:25:01.443Z,18.70
2019-05-28T06:26:01.437Z,19.40
2019-05-28T06:27:01.418Z,19.20
2019-05-28T06:28:01.418Z,17.90
2019-05-28T06:29:01.428Z,18.10
2019-05-28T06:30:01.389Z,18.70
2019-05-28T06:31:01.387Z,18.10
2019-05-28T06:32:01.401Z,18.30
2019-05-28T06:33:01.362Z,18.60
2019-05-28T06:34:01.381Z,18.40
2019-05-28T06:35:01.333Z,17.60
2019-05-28T06:36:01.325Z,17.10
2019-05-28T06:37:01.316Z,17.60
2019-05-28T06:38:01.301Z,17.40
2019-05-28T06:39:01.291Z,17.60
2019-05-28T06:40:01.321Z,17.00
2019-05-28T06:41:01.276Z,17.60
2019-05-28T06:42:01.262Z,17.70
2019-05-28T06:43:01.244Z,17.10
2019-05-28T06:44:01.232Z,18.00
2019-05-28T06:45:01.241Z,16.80
2019-05-28T06:46:01.215Z,17.40
2019-05-28T06:47:01.237Z,17.00
2019-05-28T06:48:01.196Z,16.80
2019-05-28T06:49:01.176Z,17.80
2019-05-28T06:50:01.183Z,17.60
2019-05-28T06:51:01.163Z,17.00
2019-05-28T06:52:01.169Z,16.40
2019-05-28T06:53:01.138Z,16.70
2019-05-28T06:54:01.122Z,16.30
2019-05-28T06:55:01.111Z,16.60
2019-05-28T06:56:01.134Z,16.70
2019-05-28T06:57:01.102Z,16.60
2019-05-28T06:58:01.099Z,16.70
2019-05-28T06:59:01.076Z,16.90
2019-05-28T07:00:01.060Z,16.90
2019-05-28T07:01:01.127Z,16.60
2019-05-28T07:02:01.038Z,16.40
2019-05-28T07:03:01.029Z,16.60
2019-05-28T07:04:13.467Z,16.30
2019-05-28T07:05:01.999Z,16.00
2019-05-28T07:06:07.027Z,16.90
2019-05-28T07:07:01.986Z,16.60
2019-05-28T07:08:00.990Z,16.10
2019-05-28T07:09:00.956Z,16.40
2019-05-28T07:10:00.944Z,16.70
2019-05-28T07:11:00.955Z,16.50
2019-05-28T07:12:01.014Z,16.70
2019-05-28T07:13:00.920Z,16.40
2019-05-28T07:14:00.905Z,16.40
2019-05-28T07:15:00.893Z,16.10
2019-05-28T07:16:00.881Z,16.30
2019-05-28T07:17:00.872Z,16.00
2019-05-28T07:18:00.873Z,16.50
2019-05-28T07:19:00.847Z,16.80
2019-05-28T07:20:00.840Z,16.50
2019-05-28T07:21:00.841Z,16.30
2019-05-28T07:22:00.825Z,15.90
2019-05-28T07:23:00.821Z,16.10
2019-05-28T07:24:04.973Z,16.10
2019-05-28T07:25:00.780Z,15.80
2019-05-28T07:26:00.774Z,16.10
2019-05-28T07:27:00.766Z,15.70
2019-05-28T07:28:10.780Z,15.70
2019-05-28T07:29:01.758Z,15.50
2019-05-28T07:30:00.731Z,15.70
2019-05-28T07:31:00.723Z,15.50
2019-05-28T07:32:00.711Z,15.70
2019-05-28T07:33:00.730Z,16.10
2019-05-28T07:34:00.693Z,15.50
2019-05-28T07:35:00.677Z,15.60
2019-05-28T07:36:00.663Z,15.80
2019-05-28T07:37:00.655Z,15.90
2019-05-28T07:38:00.640Z,16.20
2019-05-28T07:39:00.642Z,16.20
2019-05-28T07:40:00.615Z,15.80
2019-05-28T07:41:00.612Z,16.60
2019-05-28T07:42:00.598Z,16.30
2019-05-28T07:43:00.592Z,16.40
2019-05-28T07:44:00.597Z,16.40
2019-05-28T07:45:00.561Z,16.40
2019-05-28T07:46:00.555Z,16.60
2019-05-28T07:47:00.548Z,16.00
2019-05-28T07:48:00.529Z,16.00
2019-05-28T07:49:00.532Z,16.30
2019-05-28T07:50:00.512Z,15.90
2019-05-28T07:51:00.497Z,16.20
2019-05-28T07:52:00.492Z,16.60
2019-05-28T07:53:00.509Z,16.00
2019-05-28T07:54:00.509Z,15.90
2019-05-28T07:55:00.464Z,15.90
2019-05-28T07:56:00.498Z,16.20
2019-05-28T07:57:00.452Z,16.30
2019-05-28T07:58:00.426Z,16.30
2019-05-28T07:59:00.423Z,16.20
2019-05-28T08:00:05.078Z,16.10
2019-05-28T08:01:01.385Z,15.80
2019-05-28T08:02:00.407Z,16.40
2019-05-28T08:03:00.365Z,16.10
2019-05-28T08:04:00.356Z,16.30
2019-05-28T08:05:00.358Z,16.00
2019-05-28T08:06:00.336Z,16.00
2019-05-28T08:07:00.347Z,16.40
2019-05-28T08:08:00.313Z,16.10
2019-05-28T08:09:00.334Z,16.50
2019-05-28T08:10:00.319Z,16.20
2019-05-28T08:11:00.333Z,16.70
2019-05-28T08:12:00.277Z,16.50
2019-05-28T08:13:00.253Z,16.30
2019-05-28T08:14:00.243Z,16.60
2019-05-28T08:15:00.231Z,16.40
2019-05-28T08:16:17.683Z,16.00
2019-05-28T08:17:01.227Z,16.50
2019-05-28T08:18:00.201Z,16.00
2019-05-28T08:19:00.213Z,16.20
2019-05-28T08:20:00.197Z,16.30
2019-05-28T08:21:00.183Z,16.60
2019-05-28T08:22:00.176Z,16.00
2019-05-28T08:23:00.149Z,16.30
2019-05-28T08:24:00.179Z,16.30
2019-05-28T08:25:00.230Z,16.50
2019-05-28T08:26:01.945Z,16.80
2019-05-28T08:27:00.118Z,16.60
2019-05-28T08:28:16.427Z,16.70
2019-05-28T08:29:01.077Z,16.30
2019-05-28T08:30:00.067Z,16.20
2019-05-28T08:31:14.800Z,16.00
2019-05-28T08:32:01.065Z,16.80
2019-05-28T08:33:00.046Z,16.00
2019-05-28T08:34:00.036Z,16.10
2019-05-28T08:35:05.306Z,16.30
2019-05-28T08:36:01.015Z,15.90
2019-05-28T08:37:05.784Z,16.10
2019-05-28T08:38:01.010Z,16.30
2019-05-28T08:38:59.970Z,16.00
2019-05-28T08:39:59.973Z,16.70
2019-05-28T08:40:59.959Z,16.70
2019-05-28T08:41:59.937Z,16.70
2019-05-28T08:42:59.995Z,17.00
2019-05-28T08:43:59.954Z,16.70
2019-05-28T08:44:59.906Z,16.70
2019-05-28T08:45:59.898Z,16.80
2019-05-28T08:46:59.887Z,16.50
2019-05-28T08:47:59.871Z,16.70
2019-05-28T08:48:59.866Z,16.80
2019-05-28T08:49:59.857Z,16.20
2019-05-28T08:50:59.838Z,16.10
2019-05-28T08:51:59.832Z,17.00
2019-05-28T08:52:59.821Z,16.90
2019-05-28T08:53:59.838Z,17.10
2019-05-28T08:54:59.801Z,17.10
2019-05-28T08:55:59.812Z,16.70
2019-05-28T08:56:59.777Z,17.00
2019-05-28T08:58:01.674Z,17.40
2019-05-28T08:58:59.750Z,16.80
2019-05-28T08:59:59.757Z,17.60
2019-05-28T09:00:59.734Z,17.60
2019-05-28T09:01:59.721Z,17.60
2019-05-28T09:02:59.717Z,16.90
2019-05-28T09:03:59.706Z,17.10
2019-05-28T09:04:59.718Z,16.70
2019-05-28T09:05:59.675Z,16.90
2019-05-28T09:06:59.665Z,17.00
2019-05-28T09:07:59.653Z,17.10
2019-05-28T09:08:59.669Z,17.20
2019-05-28T09:09:59.631Z,16.80
2019-05-28T09:10:59.681Z,16.90
2019-05-28T09:11:59.612Z,17.40
2019-05-28T09:12:59.604Z,17.90
2019-05-28T09:13:59.594Z,16.90
2019-05-28T09:14:59.577Z,17.20
2019-05-28T09:15:59.568Z,16.70
2019-05-28T09:16:59.565Z,16.70
2019-05-28T09:17:59.543Z,17.00
2019-05-28T09:18:59.535Z,16.80
2019-05-28T09:19:59.527Z,16.70
2019-05-28T09:20:59.541Z,17.00
2019-05-28T09:21:59.581Z,16.50
2019-05-28T09:22:59.494Z,16.70
2019-05-28T09:23:59.490Z,16.30
2019-05-28T09:24:59.495Z,15.50
2019-05-28T09:25:59.458Z,15.60
2019-05-28T09:26:59.442Z,15.60
2019-05-28T09:27:59.431Z,16.20
2019-05-28T09:28:59.439Z,15.70
2019-05-28T09:29:59.415Z,15.90
2019-05-28T09:30:59.399Z,15.90
2019-05-28T09:31:59.402Z,15.40
2019-05-28T09:32:59.416Z,15.60
2019-05-28T09:33:59.372Z,15.90
2019-05-28T09:35:02.566Z,15.90
2019-05-28T09:36:08.302Z,16.10
2019-05-28T09:37:00.342Z,16.20
2019-05-28T09:37:59.352Z,15.70
2019-05-28T09:38:59.319Z,15.80
2019-05-28T09:39:59.351Z,15.40
2019-05-28T09:40:59.291Z,15.70
2019-05-28T09:41:59.285Z,15.60
2019-05-28T09:42:59.283Z,15.50
2019-05-28T09:43:59.310Z,16.20
2019-05-28T09:44:59.279Z,16.00
2019-05-28T09:45:59.244Z,16.60
2019-05-28T09:46:59.235Z,15.50
2019-05-28T09:47:59.216Z,16.40
2019-05-28T09:48:59.235Z,16.50
2019-05-28T09:49:59.202Z,16.40
2019-05-28T09:50:59.195Z,16.50
2019-05-28T09:51:59.175Z,16.40
2019-05-28T09:52:59.175Z,16.90
2019-05-28T09:53:59.159Z,16.40
2019-05-28T09:54:59.176Z,16.80
2019-05-28T09:55:59.140Z,16.50
2019-05-28T09:56:59.126Z,16.30
2019-05-28T09:57:59.117Z,16.60
2019-05-28T09:58:59.104Z,16.80
2019-05-28T09:59:59.150Z,16.80
2019-05-28T10:00:59.279Z,16.50
2019-05-28T10:01:59.101Z,16.70
2019-05-28T10:02:59.062Z,17.30
2019-05-28T10:03:59.052Z,16.80
2019-05-28T10:04:59.043Z,17.30
2019-05-28T10:06:15.523Z,17.10
2019-05-28T10:07:00.056Z,16.90
2019-05-28T10:07:59.025Z,17.20
2019-05-28T10:08:59.062Z,17.40
2019-05-28T10:09:59.026Z,17.00
2019-05-28T10:10:58.975Z,17.10
2019-05-28T10:11:58.977Z,17.10
2019-05-28T10:12:58.951Z,17.00
2019-05-28T10:13:58.948Z,17.20
2019-05-28T10:14:58.930Z,17.60
2019-05-28T10:15:58.929Z,16.90
2019-05-28T10:16:58.905Z,16.90
2019-05-28T10:17:58.897Z,16.90
2019-05-28T10:18:58.883Z,17.40
2019-05-28T10:19:58.877Z,16.70
2019-05-28T10:21:14.639Z,16.90
2019-05-28T10:21:59.857Z,16.60
2019-05-28T10:22:58.845Z,16.80
2019-05-28T10:23:58.849Z,17.50
2019-05-28T10:24:58.826Z,16.60
2019-05-28T10:25:58.832Z,16.90
2019-05-28T10:26:58.874Z,16.90
2019-05-28T10:28:01.435Z,17.00
2019-05-28T10:28:58.777Z,16.40
2019-05-28T10:29:58.766Z,17.30
2019-05-28T10:30:58.772Z,17.20
2019-05-28T10:31:58.742Z,16.80
2019-05-28T10:32:58.777Z,16.80
2019-05-28T10:33:58.718Z,16.80
2019-05-28T10:35:03.816Z,17.20
2019-05-28T10:35:59.702Z,17.00
2019-05-28T10:36:58.712Z,16.80
2019-05-28T10:37:58.697Z,16.50
2019-05-28T10:38:58.665Z,16.90
2019-05-28T10:39:58.649Z,16.60
2019-05-28T10:40:58.642Z,16.50
2019-05-28T10:41:58.628Z,17.20
2019-05-28T10:42:58.661Z,16.30
2019-05-28T10:43:58.635Z,17.00
2019-05-28T10:44:58.594Z,16.60
2019-05-28T10:45:58.599Z,17.10
2019-05-28T10:46:58.584Z,17.60
2019-05-28T10:47:58.596Z,17.40
2019-05-28T10:48:58.564Z,17.10
2019-05-28T10:49:58.551Z,16.70
2019-05-28T10:50:58.541Z,16.80
2019-05-28T10:51:58.518Z,16.60
2019-05-28T10:52:58.514Z,16.30
2019-05-28T10:53:58.529Z,16.80
2019-05-28T10:55:02.448Z,16.70
2019-05-28T10:55:58.477Z,16.60
2019-05-28T10:56:58.465Z,16.50
2019-05-28T10:57:58.464Z,16.20
2019-05-28T10:58:58.457Z,15.70
2019-05-28T10:59:58.440Z,16.20
2019-05-28T11:00:58.424Z,16.00
2019-05-28T11:01:58.433Z,15.80
2019-05-28T11:02:58.401Z,15.60
2019-05-28T11:03:58.431Z,16.50
2019-05-28T11:04:58.387Z,16.30
2019-05-28T11:05:58.370Z,17.10
2019-05-28T11:06:58.366Z,16.90
2019-05-28T11:07:58.351Z,17.30
2019-05-28T11:08:58.344Z,17.10
2019-05-28T11:09:58.338Z,17.50
2019-05-28T11:10:58.314Z,17.10
2019-05-28T11:11:58.315Z,17.00
2019-05-28T11:12:58.295Z,17.10
2019-05-28T11:13:58.304Z,17.40
2019-05-28T11:14:58.278Z,17.20
2019-05-28T11:15:58.260Z,18.00
2019-05-28T11:16:58.249Z,18.00
2019-05-28T11:17:58.252Z,17.70
2019-05-28T11:18:58.237Z,18.30
2019-05-28T11:19:58.264Z,17.90
2019-05-28T11:20:58.217Z,17.90
2019-05-28T11:21:58.196Z,17.40
2019-05-28T11:22:58.185Z,17.90
2019-05-28T11:23:58.174Z,17.00
2019-05-28T11:24:58.169Z,17.80
2019-05-28T11:25:58.203Z,17.50
2019-05-28T11:26:58.147Z,17.30
2019-05-28T11:27:58.138Z,17.40
2019-05-28T11:28:58.128Z,17.50
2019-05-28T11:29:58.132Z,17.30
2019-05-28T11:30:58.100Z,17.80
2019-05-28T11:31:58.126Z,17.30
2019-05-28T11:32:58.078Z,17.70
2019-05-28T11:33:58.074Z,17.30
2019-05-28T11:34:58.062Z,18.10
2019-05-28T11:35:58.051Z,18.00
2019-05-28T11:37:08.835Z,18.50
2019-05-28T11:37:59.057Z,25.10
2019-05-28T11:38:58.021Z,22.30
2019-05-28T11:39:58.012Z,23.30
2019-05-28T11:40:58.002Z,57.50
2019-05-28T11:41:58.011Z,18.50
2019-05-28T11:42:58.013Z,18.40
2019-05-28T11:43:58.514Z,20.80
2019-05-28T11:44:58.014Z,23.90
2019-05-28T11:45:58.005Z,70.00
2019-05-28T11:46:58.026Z,20.30
2019-05-28T11:47:58.028Z,18.80
2019-05-28T11:48:57.960Z,23.60
2019-05-28T11:49:57.926Z,21.10
2019-05-28T11:50:57.938Z,28.80
2019-05-28T11:51:57.908Z,19.80
2019-05-28T11:52:58.117Z,17.70
2019-05-28T11:53:57.872Z,17.20
2019-05-28T11:54:57.852Z,16.70
2019-05-28T11:55:57.901Z,16.60
2019-05-28T11:56:57.842Z,17.10
2019-05-28T11:57:57.869Z,17.30
2019-05-28T11:58:57.821Z,17.10
2019-05-28T11:59:57.900Z,17.20
2019-05-28T12:00:57.851Z,17.40
2019-05-28T12:01:57.924Z,17.40
2019-05-28T12:02:57.779Z,17.20
2019-05-28T12:03:57.819Z,16.90
2019-05-28T12:04:57.790Z,16.80
2019-05-28T12:05:57.750Z,16.90
2019-05-28T12:06:57.728Z,16.60
2019-05-28T12:07:57.801Z,17.00
2019-05-28T12:08:57.733Z,16.50
2019-05-28T12:09:57.716Z,16.30
2019-05-28T12:10:57.746Z,16.60
2019-05-28T12:11:57.693Z,16.70
2019-05-28T12:12:57.722Z,17.10
2019-05-28T12:13:57.697Z,17.10
2019-05-28T12:14:57.647Z,17.00
2019-05-28T12:15:57.648Z,17.20
2019-05-28T12:16:57.639Z,17.10
2019-05-28T12:17:57.647Z,17.60
2019-05-28T12:18:58.394Z,17.10
2019-05-28T12:19:57.644Z,17.10
2019-05-28T12:20:57.586Z,16.80
2019-05-28T12:21:57.569Z,17.00
2019-05-28T12:23:10.340Z,16.90
2019-05-28T12:23:58.575Z,17.30
2019-05-28T12:24:57.513Z,17.50
2019-05-28T12:25:57.584Z,16.70
2019-05-28T12:26:57.629Z,18.20
2019-05-28T12:27:57.524Z,17.30
2019-05-28T12:28:57.578Z,17.50
2019-05-28T12:29:57.544Z,16.90
2019-05-28T12:30:57.469Z,17.30
2019-05-28T12:31:57.759Z,17.20
2019-05-28T12:32:57.461Z,16.80
2019-05-28T12:33:57.462Z,16.60
2019-05-28T12:34:57.427Z,17.10
2019-05-28T12:35:57.405Z,17.10
2019-05-28T12:36:57.397Z,17.10
2019-05-28T12:37:57.457Z,18.00
2019-05-28T12:38:57.365Z,18.10
2019-05-28T12:39:57.357Z,18.20
2019-05-28T12:40:57.376Z,18.10
2019-05-28T12:42:03.094Z,18.00
2019-05-28T12:42:58.339Z,18.00
2019-05-28T12:43:57.311Z,17.90
2019-05-28T12:45:08.985Z,17.90
2019-05-28T12:45:58.332Z,17.90
2019-05-28T12:46:57.327Z,18.30
2019-05-28T12:48:10.049Z,18.00
2019-05-28T12:48:58.267Z,18.90
2019-05-28T12:50:17.322Z,18.40
2019-05-28T12:51:00.207Z,17.80
2019-05-28T12:51:57.234Z,18.00